Time;durP1;ratioP1;P1;durP2;ratioP2;P2;SDS_P1;SDS_P2;PMS_P1;PMS_P2;Temp;Humidity;BMP_temperature;BMP_pressure;BME280_temperature;BME280_humidity;BME280_pressure;Samples;Min_cycle;Max_cycle;Signal;HPM_P1;HPM_P2
2022/04/17 00:01:03;;;;;;;7.27;6.57;;;10.60;46.70;;;;;;4996229;28;20204;-80
2022/04/17 00:03:30;;;;;;;10.20;7.27;;;10.70;47.00;;;;;;4985142;28;20229;-80
2022/04/17 00:05:58;;;;;;;9.20;6.67;;;10.60;47.00;;;;;;4971699;28;20215;-80
2022/04/17 00:08:27;;;;;;;8.27;6.93;;;10.60;47.50;;;;;;4992473;28;20228;-80
2022/04/17 00:10:54;;;;;;;8.40;7.43;;;10.60;47.50;;;;;;4958050;28;20205;-80
2022/04/17 00:13:22;;;;;;;8.33;6.90;;;10.60;47.50;;;;;;4957413;29;20205;-80
2022/04/17 00:15:51;;;;;;;8.20;7.33;;;10.50;47.30;;;;;;4956762;28;20206;-80
2022/04/17 00:18:18;;;;;;;8.07;7.00;;;10.50;47.80;;;;;;4956137;29;20237;-80
2022/04/17 00:20:46;;;;;;;8.73;7.00;;;10.40;47.50;;;;;;4973088;28;20202;-80
2022/04/17 00:23:13;;;;;;;8.47;7.53;;;10.40;48.50;;;;;;4968090;28;20221;-80
2022/04/17 00:25:40;;;;;;;9.70;6.87;;;10.30;48.40;;;;;;4960783;28;20209;-80
2022/04/17 00:28:08;;;;;;;7.97;7.17;;;10.40;48.70;;;;;;4987061;28;20756;-80
2022/04/17 00:30:36;;;;;;;7.97;7.17;;;10.40;48.40;;;;;;4982929;28;20205;-80
2022/04/17 00:33:05;;;;;;;8.20;7.17;;;10.40;48.60;;;;;;4974724;28;20693;-80
2022/04/17 00:35:35;;;;;;;7.67;6.83;;;10.30;48.20;;;;;;4984926;28;20197;-80
2022/04/17 00:38:04;;;;;;;9.33;7.07;;;10.20;48.30;;;;;;5010328;28;20223;-80
2022/04/17 00:40:32;;;;;;;7.40;6.63;;;10.30;48.60;;;;;;4966461;28;20217;-80
2022/04/17 00:42:59;;;;;;;7.90;6.47;;;10.30;48.90;;;;;;4972348;28;20237;-80
2022/04/17 00:45:27;;;;;;;7.70;6.80;;;10.20;48.70;;;;;;4982064;28;20204;-80
2022/04/17 00:47:54;;;;;;;7.83;6.97;;;10.20;49.10;;;;;;4989109;28;20227;-80
2022/04/17 00:50:23;;;;;;;8.40;6.47;;;10.10;49.80;;;;;;4972235;28;20209;-80
2022/04/17 00:52:51;;;;;;;9.37;6.97;;;10.00;49.20;;;;;;4956333;29;20213;-80
2022/04/17 00:55:18;;;;;;;9.77;7.00;;;10.00;49.80;;;;;;4974316;28;20209;-80
2022/04/17 00:57:49;;;;;;;7.67;6.80;;;9.80;51.20;;;;;;4974827;28;20228;-80
2022/04/17 01:00:18;;;;;;;8.67;6.77;;;9.80;51.80;;;;;;4975452;28;20205;-80
2022/04/17 01:02:46;;;;;;;7.87;7.07;;;9.80;51.70;;;;;;4990982;28;20201;-80
2022/04/17 01:05:13;;;;;;;7.93;7.13;;;10.00;50.60;;;;;;4986593;28;20660;-80
2022/04/17 01:07:43;;;;;;;7.83;7.03;;;10.20;49.90;;;;;;4964858;28;20216;-80
2022/04/17 01:10:12;;;;;;;10.13;7.60;;;10.30;50.30;;;;;;4981729;28;20610;-80
2022/04/17 01:12:39;;;;;;;8.17;7.33;;;10.50;51.20;;;;;;4979196;28;20205;-80
2022/04/17 01:15:07;;;;;;;8.63;7.63;;;10.30;50.50;;;;;;4967824;28;20239;-80
2022/04/17 01:17:35;;;;;;;8.03;7.33;;;10.30;51.10;;;;;;4979733;28;20231;-80
2022/04/17 01:20:03;;;;;;;9.10;8.17;;;10.30;51.00;;;;;;4994375;28;20192;-80
2022/04/17 01:22:32;;;;;;;10.97;8.30;;;10.00;51.20;;;;;;4975126;28;20201;-80
2022/04/17 01:27:45;;;;;;;10.50;8.20;;;9.70;53.90;;;;;;4970896;28;20221;-80
2022/04/17 01:30:12;;;;;;;9.00;8.10;;;9.40;55.20;;;;;;4955600;29;20318;-80
2022/04/17 01:32:40;;;;;;;9.03;8.10;;;9.20;56.60;;;;;;4955292;28;20228;-80
2022/04/17 01:35:08;;;;;;;9.57;8.57;;;9.10;57.40;;;;;;4969254;28;20197;-80
2022/04/17 01:37:37;;;;;;;8.87;7.77;;;9.30;56.90;;;;;;4986882;28;20209;-80
2022/04/17 01:40:05;;;;;;;8.93;7.53;;;9.20;57.30;;;;;;4979859;28;20214;-80
2022/04/17 01:42:33;;;;;;;9.87;7.93;;;9.10;57.60;;;;;;4971376;28;20209;-80
2022/04/17 01:45:00;;;;;;;10.27;8.53;;;8.60;62.50;;;;;;4959106;28;20221;-80
2022/04/17 01:47:28;;;;;;;9.07;7.53;;;8.50;63.10;;;;;;4983729;28;20229;-79
2022/04/17 01:49:55;;;;;;;9.17;7.83;;;8.50;63.90;;;;;;4976608;28;20208;-79
2022/04/17 01:52:22;;;;;;;9.60;7.53;;;8.50;64.90;;;;;;4972980;28;20206;-79
2022/04/17 01:54:51;;;;;;;7.90;7.10;;;8.50;67.60;;;;;;4972697;28;20679;-79
2022/04/17 01:57:19;;;;;;;9.53;8.53;;;8.40;68.80;;;;;;4973335;28;20221;-79
2022/04/17 01:59:46;;;;;;;10.77;8.40;;;8.50;69.10;;;;;;4974945;28;20200;-79
2022/04/17 02:02:13;;;;;;;8.43;7.60;;;8.50;70.60;;;;;;4975041;28;20212;-79
2022/04/17 02:04:41;;;;;;;8.67;7.83;;;8.30;71.60;;;;;;4973816;28;20217;-79
2022/04/17 02:07:09;;;;;;;9.17;8.17;;;8.30;74.20;;;;;;4981895;28;20217;-79
2022/04/17 02:09:36;;;;;;;8.60;7.67;;;8.30;75.80;;;;;;4973969;28;20215;-79
2022/04/17 02:12:05;;;;;;;9.00;8.10;;;8.20;78.10;;;;;;4973237;28;20197;-79
2022/04/17 02:14:33;;;;;;;10.33;8.20;;;8.10;80.60;;;;;;4988625;28;20208;-79
2022/04/17 02:17:00;;;;;;;10.50;8.40;;;7.90;82.90;;;;;;4972239;28;20706;-79
2022/04/17 02:19:28;;;;;;;9.20;8.30;;;7.90;82.90;;;;;;4960168;28;20201;-79
2022/04/17 02:21:55;;;;;;;8.83;7.77;;;7.90;82.60;;;;;;4975144;28;20205;-79
2022/04/17 02:24:23;;;;;;;9.03;8.03;;;8.00;83.30;;;;;;4971297;28;20231;-80
2022/04/17 02:26:50;;;;;;;9.43;8.53;;;8.00;85.50;;;;;;4984161;28;20228;-80
2022/04/17 02:29:19;;;;;;;11.93;8.40;;;7.80;87.80;;;;;;4990432;28;20208;-79
2022/04/17 02:31:46;;;;;;;8.27;7.37;;;7.70;90.00;;;;;;4974173;28;20676;-79
2022/04/17 02:34:14;;;;;;;11.77;8.87;;;7.80;90.50;;;;;;4954396;29;20577;-79
2022/04/17 02:36:41;;;;;;;12.10;8.73;;;7.80;89.80;;;;;;4981096;28;20221;-79
2022/04/17 02:39:29;;;;;;;9.13;8.10;;;7.80;90.20;;;;;;4985525;28;20207;-79
2022/04/17 02:41:56;;;;;;;9.67;8.47;;;7.80;90.40;;;;;;4973224;28;20211;-79
2022/04/17 02:44:25;;;;;;;10.50;8.93;;;7.70;91.10;;;;;;4974878;28;20213;-79
2022/04/17 02:49:39;;;;;;;10.63;9.47;;;7.60;91.10;;;;;;4938727;29;20201;-79
2022/04/17 02:52:07;;;;;;;12.90;9.70;;;7.60;91.50;;;;;;4971069;28;20200;-79
2022/04/17 02:54:34;;;;;;;15.43;10.47;;;7.50;92.10;;;;;;4954579;28;20194;-79
2022/04/17 02:57:02;;;;;;;16.13;10.43;;;7.40;92.40;;;;;;4981015;28;20243;-79
2022/04/17 02:59:31;;;;;;;13.03;9.70;;;7.30;93.10;;;;;;4978662;28;20206;-79
2022/04/17 03:07:34;;;;;;;11.67;9.50;;;7.10;94.30;;;;;;4979638;28;20220;-80
2022/04/17 03:10:02;;;;;;;10.50;9.47;;;7.10;94.20;;;;;;4969866;28;20243;-80
2022/04/17 03:12:29;;;;;;;13.50;9.20;;;7.20;94.00;;;;;;4986703;28;20220;-79
2022/04/17 03:14:58;;;;;;;13.77;9.63;;;6.90;94.60;;;;;;4969478;28;20205;-80
2022/04/17 03:17:26;;;;;;;10.37;8.93;;;7.00;94.60;;;;;;4972824;28;20577;-80
2022/04/17 03:19:53;;;;;;;11.10;9.23;;;7.00;94.40;;;;;;4969104;28;20188;-80
2022/04/17 03:22:22;;;;;;;11.80;9.90;;;7.00;94.60;;;;;;4968643;28;20205;-80
2022/04/17 03:24:50;;;;;;;10.83;9.60;;;7.00;94.60;;;;;;4964944;28;20224;-80
2022/04/17 03:27:17;;;;;;;15.13;11.50;;;6.80;94.90;;;;;;4969366;28;20586;-80
2022/04/17 03:29:45;;;;;;;15.33;10.50;;;6.70;95.30;;;;;;4971210;28;20210;-79
2022/04/17 03:32:13;;;;;;;18.17;11.47;;;6.70;96.30;;;;;;4968081;28;20207;-80
2022/04/17 03:34:41;;;;;;;12.33;10.40;;;6.70;96.40;;;;;;4969266;28;20200;-80
2022/04/17 03:37:09;;;;;;;11.37;9.70;;;6.70;96.40;;;;;;4985674;28;20218;-80
2022/04/17 03:39:36;;;;;;;11.17;9.17;;;6.70;96.60;;;;;;4967951;28;20201;-80
2022/04/17 03:42:05;;;;;;;12.23;9.73;;;6.90;96.20;;;;;;4971321;28;20200;-80
2022/04/17 03:44:33;;;;;;;11.47;9.87;;;6.90;95.60;;;;;;4977475;28;20223;-80
2022/04/17 03:47:03;;;;;;;14.80;10.03;;;6.90;95.90;;;;;;4970107;28;20946;-80
2022/04/17 03:49:31;;;;;;;10.40;9.27;;;6.70;96.10;;;;;;4991168;28;20229;-80
2022/04/17 03:52:00;;;;;;;11.00;8.70;;;6.70;97.30;;;;;;4970172;28;20223;-80
2022/04/17 03:54:27;;;;;;;10.03;9.03;;;6.50;97.40;;;;;;4973485;28;20212;-80
2022/04/17 03:56:55;;;;;;;11.90;9.67;;;6.30;98.10;;;;;;4970009;28;20224;-80
2022/04/17 03:59:22;;;;;;;14.53;10.03;;;6.20;97.90;;;;;;4968957;28;20200;-80
2022/04/17 04:01:50;;;;;;;12.10;9.50;;;6.00;98.30;;;;;;4983033;28;20204;-80
2022/04/17 04:04:17;;;;;;;12.93;9.40;;;6.10;99.40;;;;;;4967128;28;20211;-80
2022/04/17 04:06:46;;;;;;;11.93;9.37;;;6.20;99.40;;;;;;4973771;28;20574;-80
2022/04/17 04:09:14;;;;;;;10.73;9.37;;;6.10;99.40;;;;;;4976440;28;20196;-80
2022/04/17 04:11:41;;;;;;;12.33;9.70;;;6.10;99.40;;;;;;4992710;28;20209;-80
2022/04/17 04:14:08;;;;;;;10.23;9.17;;;6.10;99.70;;;;;;4968930;28;20208;-80
2022/04/17 04:16:36;;;;;;;10.53;9.20;;;6.00;99.70;;;;;;4975466;28;20206;-79
2022/04/17 04:19:05;;;;;;;12.77;10.00;;;6.00;99.60;;;;;;4978228;28;20209;-79
2022/04/17 04:21:32;;;;;;;12.27;9.33;;;5.80;99.90;;;;;;4974381;28;20212;-79
2022/04/17 04:24:01;;;;;;;12.77;9.70;;;6.00;99.40;;;;;;4965577;28;20543;-80
2022/04/17 04:26:30;;;;;;;10.43;9.37;;;6.20;99.00;;;;;;4976416;28;20206;-80
2022/04/17 04:28:56;;;;;;;12.67;9.63;;;6.30;98.40;;;;;;4987630;28;20551;-80
2022/04/17 04:31:24;;;;;;;12.13;10.43;;;6.50;98.00;;;;;;4972937;28;20685;-77
2022/04/17 04:33:51;;;;;;;12.27;9.63;;;6.50;97.40;;;;;;4973054;28;20670;-77
2022/04/17 04:36:18;;;;;;;11.17;9.37;;;6.50;97.10;;;;;;4967919;28;20555;-77
2022/04/17 04:38:46;;;;;;;13.93;10.00;;;6.40;97.40;;;;;;4979214;28;20206;-77
2022/04/17 04:41:14;;;;;;;12.90;10.10;;;6.40;97.50;;;;;;4966866;28;20215;-77
2022/04/17 04:43:42;;;;;;;12.20;10.10;;;6.40;97.80;;;;;;4971639;28;20679;-77
2022/04/17 04:46:09;;;;;;;12.73;9.67;;;6.20;98.20;;;;;;4975572;28;20209;-77
2022/04/17 04:51:27;;;;;;;10.83;8.63;;;6.00;99.00;;;;;;4969308;28;20200;-77
2022/04/17 04:53:56;;;;;;;13.40;9.83;;;6.10;98.70;;;;;;4967142;28;20205;-77
2022/04/17 04:56:26;;;;;;;11.27;9.47;;;6.00;99.10;;;;;;4975200;28;20204;-77
2022/04/17 04:58:53;;;;;;;10.80;8.97;;;5.90;99.60;;;;;;4977899;28;20203;-77
2022/04/17 05:01:21;;;;;;;10.70;9.53;;;5.80;99.90;;;;;;4975821;28;20201;-76
2022/04/17 05:03:48;;;;;;;11.73;9.70;;;5.70;99.90;;;;;;4966135;28;20669;-76
2022/04/17 05:06:15;;;;;;;13.37;10.50;;;5.80;99.90;;;;;;4972247;28;20227;-76
2022/04/17 05:08:43;;;;;;;14.30;10.60;;;5.70;99.90;;;;;;4978365;28;20223;-76
2022/04/17 05:11:12;;;;;;;14.60;11.83;;;5.80;99.90;;;;;;4987461;28;20200;-76
2022/04/17 05:13:42;;;;;;;13.97;11.60;;;5.80;99.90;;;;;;4970387;28;20207;-76
2022/04/17 05:16:09;;;;;;;13.93;10.80;;;6.10;99.90;;;;;;4975671;28;20684;-76
2022/04/17 05:18:37;;;;;;;12.70;10.87;;;6.50;98.70;;;;;;4981051;28;20222;-76
2022/04/17 05:21:06;;;;;;;13.73;11.30;;;6.60;98.10;;;;;;4971272;28;20205;-76
2022/04/17 05:23:33;;;;;;;15.07;11.40;;;6.50;98.10;;;;;;4971621;28;20213;-76
2022/04/17 05:26:02;;;;;;;11.33;10.17;;;6.50;98.70;;;;;;4975253;28;20227;-76
2022/04/17 05:28:32;;;;;;;12.37;10.07;;;6.40;98.80;;;;;;4984855;28;20232;-76
2022/04/17 05:31:03;;;;;;;12.87;10.63;;;6.50;98.60;;;;;;4979037;28;20210;-76
2022/04/17 05:33:31;;;;;;;14.47;10.73;;;6.80;98.10;;;;;;4971097;28;20205;-76
2022/04/17 05:35:58;;;;;;;11.33;10.07;;;7.10;97.50;;;;;;4970942;28;20671;-76
2022/04/17 05:38:26;;;;;;;12.00;9.93;;;7.20;96.70;;;;;;4969590;28;20232;-76
2022/04/17 05:40:54;;;;;;;12.57;10.20;;;6.90;96.60;;;;;;4973338;28;20207;-76
2022/04/17 05:43:22;;;;;;;12.63;10.47;;;6.90;97.40;;;;;;4983232;28;20201;-76
2022/04/17 05:45:50;;;;;;;13.70;10.30;;;7.00;97.40;;;;;;4963202;28;20663;-77
2022/04/17 05:48:20;;;;;;;12.03;10.07;;;7.10;97.30;;;;;;4974040;28;20216;-77
2022/04/17 05:50:47;;;;;;;13.87;10.20;;;7.10;97.30;;;;;;4977314;28;20196;-76
2022/04/17 05:53:15;;;;;;;12.03;10.77;;;7.20;97.20;;;;;;4972482;28;20208;-77
2022/04/17 05:55:43;;;;;;;12.10;10.43;;;7.50;96.60;;;;;;4980747;28;20200;-77
2022/04/17 05:58:10;;;;;;;12.83;10.87;;;7.80;95.90;;;;;;4971944;28;20235;-76
2022/04/17 06:00:42;;;;;;;11.87;10.50;;;8.10;95.20;;;;;;4980606;28;20196;-76
2022/04/17 06:03:09;;;;;;;11.97;10.43;;;8.10;94.90;;;;;;4991767;28;20557;-76
2022/04/17 06:05:38;;;;;;;14.83;11.23;;;7.90;95.40;;;;;;4975206;28;20845;-76
2022/04/17 06:08:06;;;;;;;13.73;10.27;;;8.00;95.10;;;;;;4974655;28;20669;-76
2022/04/17 06:10:34;;;;;;;11.93;10.73;;;8.10;95.20;;;;;;4973983;28;20228;-76
2022/04/17 06:13:01;;;;;;;12.20;10.90;;;8.20;94.80;;;;;;4958086;28;20214;-76
2022/04/17 06:15:29;;;;;;;11.83;10.23;;;8.40;94.40;;;;;;4976053;28;20205;-76
2022/04/17 06:17:58;;;;;;;12.30;10.60;;;8.40;94.20;;;;;;4963715;28;20220;-76
2022/04/17 06:20:25;;;;;;;11.37;10.27;;;8.30;94.30;;;;;;4989550;28;20215;-76
2022/04/17 06:22:54;;;;;;;12.47;10.43;;;8.40;94.60;;;;;;4982007;28;20684;-76
2022/04/17 06:25:21;;;;;;;10.57;9.60;;;8.60;94.00;;;;;;4951524;29;20202;-76
2022/04/17 06:27:49;;;;;;;12.73;10.37;;;8.40;94.20;;;;;;4968695;28;20732;-76
2022/04/17 06:30:19;;;;;;;11.43;10.30;;;8.40;94.20;;;;;;4968636;28;20208;-76
2022/04/17 06:32:47;;;;;;;11.23;10.03;;;8.40;94.30;;;;;;4965849;28;20203;-77
2022/04/17 06:35:15;;;;;;;11.00;9.90;;;8.90;94.20;;;;;;4972805;28;20221;-77
2022/04/17 06:37:47;;;;;;;11.47;10.00;;;9.20;93.20;;;;;;4964993;28;20233;-77
2022/04/17 06:40:18;;;;;;;10.30;9.17;;;9.20;92.70;;;;;;4969131;28;20676;-77
2022/04/17 06:42:46;;;;;;;12.63;10.10;;;9.20;92.40;;;;;;4969297;28;20197;-77
2022/04/17 06:45:14;;;;;;;10.27;9.13;;;9.50;92.40;;;;;;4967943;28;20205;-77
2022/04/17 06:47:42;;;;;;;9.80;8.83;;;9.80;91.50;;;;;;4969980;28;20224;-77
2022/04/17 06:50:10;;;;;;;10.93;9.83;;;9.80;91.50;;;;;;4954780;28;20209;-77
2022/04/17 06:52:37;;;;;;;10.13;8.57;;;10.00;90.30;;;;;;4966078;28;20569;-77
2022/04/17 06:55:11;;;;;;;9.77;8.83;;;10.00;90.30;;;;;;4984594;28;20205;-77
2022/04/17 06:57:45;;;;;;;11.50;10.30;;;10.00;90.30;;;;;;4969511;28;20224;-77
2022/04/17 07:00:15;;;;;;;9.70;8.70;;;10.00;90.40;;;;;;4967258;28;20232;-77
2022/04/17 07:02:43;;;;;;;10.40;9.30;;;10.00;90.70;;;;;;4964986;28;20208;-77
2022/04/17 07:05:12;;;;;;;10.47;9.40;;;10.00;91.00;;;;;;4978301;28;20701;-77
2022/04/17 07:07:39;;;;;;;10.57;9.47;;;9.90;91.60;;;;;;4976338;28;20225;-77
2022/04/17 07:10:08;;;;;;;10.30;9.30;;;10.00;91.10;;;;;;4966303;28;20207;-78
2022/04/17 07:12:36;;;;;;;11.60;9.30;;;10.00;90.90;;;;;;4974043;28;20201;-77
2022/04/17 07:15:06;;;;;;;9.03;8.10;;;10.10;90.70;;;;;;4986803;28;20208;-77
2022/04/17 07:17:35;;;;;;;5.63;4.83;;;10.20;90.40;;;;;;4987389;28;20208;-76
2022/04/17 07:20:06;;;;;;;9.50;5.80;;;10.40;85.30;;;;;;4969682;28;20209;-76
2022/04/17 07:22:34;;;;;;;7.30;4.73;;;10.40;84.60;;;;;;4972014;28;20201;-77
2022/04/17 07:25:02;;;;;;;5.33;4.77;;;10.50;82.80;;;;;;4977351;28;20204;-76
2022/04/17 07:27:36;;;;;;;6.90;4.70;;;10.60;86.70;;;;;;4974706;28;20595;-77
2022/04/17 07:30:08;;;;;;;4.17;3.77;;;10.70;81.50;;;;;;4971332;28;20201;-77
2022/04/17 07:32:54;;;;;;;7.10;4.50;;;10.80;78.00;;;;;;4971738;28;20208;-76
2022/04/17 07:35:23;;;;;;;4.63;4.20;;;10.80;78.40;;;;;;4988494;28;20201;-77
2022/04/17 07:37:54;;;;;;;5.17;4.60;;;10.90;77.90;;;;;;4981131;28;20220;-76
2022/04/17 07:40:25;;;;;;;4.17;3.77;;;10.90;77.30;;;;;;4969914;28;20213;-76
2022/04/17 07:42:53;;;;;;;6.27;4.20;;;11.10;79.00;;;;;;4982017;28;20201;-76
2022/04/17 07:45:23;;;;;;;3.73;3.43;;;11.10;79.60;;;;;;4970589;28;20559;-77
2022/04/17 07:47:50;;;;;;;4.20;3.50;;;11.20;77.10;;;;;;4964064;28;20708;-75
2022/04/17 07:50:19;;;;;;;5.90;3.97;;;11.20;72.00;;;;;;4959381;28;20204;-75
2022/04/17 07:52:46;;;;;;;4.33;3.20;;;11.20;73.10;;;;;;4971310;28;20189;-75
2022/04/17 07:55:15;;;;;;;4.60;3.70;;;11.20;72.10;;;;;;4968582;28;20224;-76
2022/04/17 07:58:01;;;;;;;4.07;3.67;;;11.40;77.10;;;;;;4977447;28;20706;-75
2022/04/17 08:00:32;;;;;;;3.70;3.20;;;11.50;75.80;;;;;;4972679;28;20197;-75
2022/04/17 08:03:09;;;;;;;4.60;4.03;;;11.50;69.60;;;;;;4974764;28;20205;-75
2022/04/17 08:05:37;;;;;;;5.37;3.30;;;11.40;70.00;;;;;;4965006;28;20584;-76
2022/04/17 08:08:06;;;;;;;4.47;3.73;;;11.60;72.10;;;;;;4970037;28;20229;-75
2022/04/17 08:10:33;;;;;;;5.73;4.37;;;11.80;72.90;;;;;;4992912;28;20196;-77
2022/04/17 08:13:01;;;;;;;5.40;4.00;;;12.00;72.70;;;;;;4974199;28;20198;-74
2022/04/17 08:15:31;;;;;;;4.13;3.33;;;12.00;71.80;;;;;;4981229;28;20650;-74
2022/04/17 08:17:58;;;;;;;3.00;2.53;;;12.20;70.80;;;;;;4972909;28;20224;-74
2022/04/17 08:20:26;;;;;;;5.50;2.97;;;12.30;66.30;;;;;;4967242;28;20219;-75
2022/04/17 08:22:53;;;;;;;4.20;3.20;;;12.30;67.30;;;;;;4966513;28;20205;-74
2022/04/17 08:25:21;;;;;;;3.93;3.30;;;12.30;67.30;;;;;;4985504;28;20196;-74
2022/04/17 08:27:50;;;;;;;2.40;2.10;;;12.30;65.60;;;;;;4964173;28;20236;-75
2022/04/17 08:30:20;;;;;;;4.35;2.72;;;12.60;66.90;;;;;;4973195;28;20197;-74
2022/04/17 08:32:49;;;;;;;2.78;2.58;;;12.60;63.70;;;;;;4973977;28;20567;-74
2022/04/17 08:35:17;;;;;;;2.55;2.33;;;12.40;61.90;;;;;;4974098;28;20224;-74
2022/04/17 08:37:45;;;;;;;4.20;2.70;;;12.60;66.40;;;;;;4976095;28;20232;-74
2022/04/17 08:40:13;;;;;;;2.95;2.50;;;12.60;63.80;;;;;;4974753;28;20197;-74
2022/04/17 08:42:41;;;;;;;2.97;2.20;;;12.50;64.10;;;;;;4982414;28;20208;-75
2022/04/17 08:45:10;;;;;;;4.25;2.35;;;12.60;64.20;;;;;;4979271;28;20220;-75
2022/04/17 08:47:38;;;;;;;2.90;2.70;;;12.80;64.30;;;;;;4973076;28;20240;-74
2022/04/17 08:50:09;;;;;;;3.15;2.85;;;12.80;60.20;;;;;;4973881;28;20216;-75
2022/04/17 08:52:38;;;;;;;4.30;2.92;;;12.80;58.60;;;;;;4970014;28;20208;-75
2022/04/17 08:55:06;;;;;;;3.80;2.80;;;12.80;60.20;;;;;;4984314;28;20201;-74
2022/04/17 08:57:33;;;;;;;3.42;2.50;;;12.80;59.60;;;;;;4973759;28;20224;-76
2022/04/17 09:00:01;;;;;;;3.67;3.22;;;13.00;61.30;;;;;;4973964;28;20196;-77
2022/04/17 09:02:28;;;;;;;3.67;3.30;;;13.20;64.80;;;;;;4965798;28;20277;-76
2022/04/17 09:04:55;;;;;;;3.85;3.45;;;13.20;60.70;;;;;;4967950;28;20216;-74
2022/04/17 09:07:24;;;;;;;3.83;2.92;;;13.30;62.60;;;;;;4963684;28;20224;-75
2022/04/17 09:09:52;;;;;;;4.30;2.83;;;13.30;63.00;;;;;;4956346;28;20695;-75
2022/04/17 09:12:20;;;;;;;3.30;3.00;;;13.30;61.80;;;;;;4988916;28;20204;-74
2022/04/17 09:14:48;;;;;;;2.60;2.40;;;13.40;59.00;;;;;;4992315;28;20204;-75
2022/04/17 09:17:16;;;;;;;2.50;2.30;;;13.40;59.60;;;;;;4966797;28;20225;-75
2022/04/17 09:19:44;;;;;;;2.45;2.25;;;13.50;58.90;;;;;;4972045;28;20201;-75
2022/04/17 09:22:12;;;;;;;4.32;2.05;;;13.60;58.70;;;;;;4973651;28;20667;-75
2022/04/17 09:24:41;;;;;;;2.67;2.22;;;13.60;57.60;;;;;;4969505;28;20201;-75
2022/04/17 09:27:10;;;;;;;4.15;2.10;;;13.80;61.70;;;;;;4999985;28;20586;-74
2022/04/17 09:29:39;;;;;;;3.80;2.20;;;13.80;59.00;;;;;;4972851;28;20200;-75
2022/04/17 09:32:09;;;;;;;2.83;2.38;;;13.80;59.40;;;;;;4969498;28;20213;-75
2022/04/17 09:34:44;;;;;;;2.53;2.33;;;13.80;61.20;;;;;;4969810;28;20201;-75
2022/04/17 09:37:13;;;;;;;3.75;2.60;;;13.90;59.50;;;;;;4983726;28;20228;-75
2022/04/17 09:39:44;;;;;;;2.67;2.08;;;13.90;57.60;;;;;;4971716;28;20200;-75
2022/04/17 09:42:12;;;;;;;2.50;1.98;;;14.00;56.70;;;;;;4970184;28;20208;-75
2022/04/17 09:44:46;;;;;;;2.75;2.28;;;14.00;54.50;;;;;;4989237;28;20197;-75
2022/04/17 09:47:16;;;;;;;3.42;2.40;;;14.10;57.70;;;;;;4972148;28;20224;-74
2022/04/17 09:50:01;;;;;;;2.65;2.38;;;14.10;56.00;;;;;;4973021;28;20201;-75
2022/04/17 09:52:31;;;;;;;3.78;2.17;;;14.20;56.10;;;;;;4971835;28;20211;-75
2022/04/17 09:55:01;;;;;;;2.45;2.00;;;14.20;54.10;;;;;;4963364;28;20205;-75
2022/04/17 09:57:30;;;;;;;2.90;2.33;;;14.20;52.50;;;;;;4998058;28;20240;-74
2022/04/17 10:00:05;;;;;;;2.85;2.25;;;14.40;53.00;;;;;;4990939;28;20215;-75
2022/04/17 10:02:34;;;;;;;3.45;2.00;;;14.30;51.10;;;;;;4980514;28;20200;-75
2022/04/17 10:05:01;;;;;;;2.92;1.90;;;14.40;54.90;;;;;;4972736;28;20205;-75
2022/04/17 10:07:29;;;;;;;3.95;2.35;;;14.70;52.40;;;;;;4967785;28;20241;-75
2022/04/17 10:09:57;;;;;;;3.95;2.60;;;14.80;53.80;;;;;;4977918;28;20568;-76
2022/04/17 10:12:26;;;;;;;3.58;2.80;;;14.80;51.70;;;;;;4967005;28;20213;-76
2022/04/17 10:14:53;;;;;;;3.67;2.95;;;14.90;51.90;;;;;;4991496;28;20192;-75
2022/04/17 10:17:22;;;;;;;4.18;2.83;;;14.90;51.90;;;;;;4992710;28;20215;-76
2022/04/17 10:19:51;;;;;;;2.88;2.67;;;14.90;50.40;;;;;;4969082;28;20526;-75
2022/04/17 10:22:20;;;;;;;3.08;2.85;;;15.20;53.50;;;;;;4979200;28;20196;-75
2022/04/17 10:24:52;;;;;;;3.60;2.67;;;15.30;51.30;;;;;;4967277;28;20569;-75
2022/04/17 10:27:24;;;;;;;3.33;2.75;;;15.80;53.60;;;;;;4967519;28;20244;-76
2022/04/17 10:30:02;;;;;;;3.83;3.40;;;15.70;50.30;;;;;;4968475;28;20208;-75
2022/04/17 10:32:45;;;;;;;3.40;3.10;;;15.70;49.90;;;;;;4973263;28;20206;-75
2022/04/17 10:35:32;;;;;;;3.55;3.20;;;15.60;48.80;;;;;;4979447;28;20681;-76
2022/04/17 10:38:27;;;;;;;3.83;3.25;;;15.60;51.00;;;;;;4978261;28;20228;-75
2022/04/17 10:41:00;;;;;;;4.43;3.35;;;15.60;51.00;;;;;;4958515;28;20668;-75
2022/04/17 10:43:35;;;;;;;3.83;3.22;;;15.90;51.00;;;;;;4972762;28;20206;-75
2022/04/17 10:46:12;;;;;;;3.30;3.00;;;15.70;49.10;;;;;;4972627;28;20698;-75
2022/04/17 10:48:46;;;;;;;3.63;2.88;;;15.70;49.70;;;;;;4965286;28;20215;-75
2022/04/17 10:51:22;;;;;;;3.55;2.72;;;16.00;48.60;;;;;;4968778;28;20931;-74
2022/04/17 10:54:03;;;;;;;2.80;2.15;;;16.20;47.70;;;;;;4966259;28;20651;-75
2022/04/17 10:56:33;;;;;;;4.95;3.22;;;16.60;48.00;;;;;;4967151;28;20240;-75
2022/04/17 10:59:05;;;;;;;3.00;2.80;;;16.60;47.20;;;;;;4963737;28;20201;-76
2022/04/17 11:01:55;;;;;;;3.38;2.80;;;16.40;45.50;;;;;;4964916;28;20221;-75
2022/04/17 11:04:25;;;;;;;3.58;2.70;;;16.40;47.30;;;;;;4966415;28;20210;-75
2022/04/17 11:07:12;;;;;;;7.18;2.67;;;16.70;47.00;;;;;;4968570;28;20591;-75
2022/04/17 11:09:42;;;;;;;4.18;2.85;;;16.70;47.30;;;;;;4986473;28;20220;-75
2022/04/17 11:12:23;;;;;;;3.75;3.13;;;16.60;47.60;;;;;;4976438;28;20213;-75
2022/04/17 11:14:54;;;;;;;2.63;2.42;;;16.90;47.30;;;;;;4959719;28;20215;-75
2022/04/17 11:17:24;;;;;;;5.00;2.60;;;17.40;47.00;;;;;;4965564;28;20225;-75
2022/04/17 11:19:56;;;;;;;3.25;2.95;;;17.30;46.60;;;;;;4965786;28;20204;-75
2022/04/17 11:22:28;;;;;;;2.92;2.63;;;17.40;46.20;;;;;;4970826;28;20575;-75
2022/04/17 11:25:07;;;;;;;2.67;2.30;;;17.40;45.20;;;;;;4967298;28;20193;-75
2022/04/17 11:27:38;;;;;;;3.33;3.00;;;17.20;45.80;;;;;;4968237;28;20236;-75
2022/04/17 11:30:07;;;;;;;3.45;2.40;;;16.80;44.30;;;;;;4959112;28;20604;-75
2022/04/17 11:32:55;;;;;;;3.70;2.50;;;17.10;47.20;;;;;;4965018;28;20207;-75
2022/04/17 11:35:24;;;;;;;3.47;2.78;;;17.50;45.90;;;;;;4974905;28;20200;-75
2022/04/17 11:37:56;;;;;;;6.18;3.15;;;17.70;45.90;;;;;;4968771;28;20574;-75
2022/04/17 11:40:27;;;;;;;2.65;2.45;;;17.70;46.50;;;;;;4964147;28;20208;-77
2022/04/17 11:42:56;;;;;;;3.35;3.00;;;17.80;43.90;;;;;;4967410;28;20205;-77
2022/04/17 11:45:26;;;;;;;2.95;2.65;;;18.20;44.60;;;;;;4969238;28;20671;-77
2022/04/17 11:47:56;;;;;;;3.67;2.50;;;18.10;45.10;;;;;;4973537;28;20220;-77
2022/04/17 11:50:27;;;;;;;2.65;2.45;;;18.20;43.90;;;;;;4964611;28;20235;-77
2022/04/17 11:52:57;;;;;;;3.72;3.00;;;18.20;44.10;;;;;;4960525;28;20208;-77
2022/04/17 11:55:26;;;;;;;3.75;2.92;;;18.10;44.30;;;;;;4966010;28;20201;-77
2022/04/17 11:57:53;;;;;;;3.42;3.13;;;17.70;44.40;;;;;;4971689;28;20223;-78
2022/04/17 12:00:21;;;;;;;4.20;3.42;;;18.30;43.40;;;;;;4970786;28;20202;-78
2022/04/17 12:02:54;;;;;;;3.22;2.78;;;18.50;45.90;;;;;;4968851;28;20554;-77
2022/04/17 12:05:25;;;;;;;3.45;3.15;;;18.90;43.90;;;;;;4966826;28;20218;-77
2022/04/17 12:08:01;;;;;;;3.45;2.88;;;19.10;41.90;;;;;;4968561;28;20699;-77
2022/04/17 12:10:29;;;;;;;4.07;3.67;;;18.90;42.70;;;;;;4966192;28;20538;-76
2022/04/17 12:12:58;;;;;;;4.10;2.63;;;19.10;41.90;;;;;;4970759;28;20207;-76
2022/04/17 12:15:25;;;;;;;2.85;2.50;;;19.00;41.10;;;;;;4984356;28;20209;-76
2022/04/17 12:18:02;;;;;;;3.60;2.72;;;18.30;41.60;;;;;;4967977;28;20228;-76
2022/04/17 12:20:30;;;;;;;3.40;2.75;;;18.70;43.80;;;;;;4964800;28;20202;-76
2022/04/17 12:22:58;;;;;;;6.90;3.45;;;18.70;43.40;;;;;;4979547;28;20203;-76
2022/04/17 12:25:37;;;;;;;2.85;2.63;;;19.30;42.80;;;;;;4979755;28;20210;-76
2022/04/17 12:28:05;;;;;;;3.50;3.10;;;18.90;41.30;;;;;;4956388;28;20252;-76
2022/04/17 12:30:32;;;;;;;3.42;3.13;;;19.10;41.50;;;;;;4969986;28;20225;-76
2022/04/17 12:33:02;;;;;;;4.63;3.63;;;19.30;44.90;;;;;;4968404;28;20209;-76
2022/04/17 12:35:33;;;;;;;5.95;4.03;;;19.20;43.90;;;;;;4991582;28;20204;-76
2022/04/17 12:38:06;;;;;;;4.35;3.88;;;19.60;44.00;;;;;;4967373;28;20229;-76
2022/04/17 12:40:42;;;;;;;4.45;3.55;;;19.40;41.90;;;;;;4980773;28;20198;-77
2022/04/17 12:43:18;;;;;;;5.30;3.75;;;19.30;43.10;;;;;;4974955;28;20212;-78
2022/04/17 12:45:57;;;;;;;6.45;3.97;;;19.60;43.80;;;;;;4981053;28;20565;-79
2022/04/17 12:48:30;;;;;;;3.67;3.38;;;19.90;42.40;;;;;;4974582;28;20221;-78
2022/04/17 12:51:03;;;;;;;5.75;3.92;;;19.20;42.50;;;;;;4970005;28;20632;-78
2022/04/17 12:53:39;;;;;;;5.88;3.42;;;19.50;40.50;;;;;;4984656;28;20543;-80
2022/04/17 12:56:07;;;;;;;3.72;3.22;;;19.50;43.20;;;;;;4995180;28;20200;-79
2022/04/17 12:58:50;;;;;;;4.25;3.85;;;19.70;44.00;;;;;;4978446;28;20224;-78
2022/04/17 13:01:22;;;;;;;4.43;4.03;;;19.80;42.00;;;;;;4973501;28;20200;-79
2022/04/17 13:03:50;;;;;;;4.63;3.53;;;19.10;41.90;;;;;;4975474;28;20200;-79
2022/04/17 13:06:24;;;;;;;3.90;3.10;;;19.70;42.40;;;;;;4967408;28;20206;-78
2022/04/17 13:09:12;;;;;;;4.75;3.30;;;20.00;42.40;;;;;;4971336;28;20221;-79
2022/04/17 13:11:43;;;;;;;3.50;3.20;;;20.20;42.20;;;;;;4972292;28;20205;-79